Time;durP1;ratioP1;P1;durP2;ratioP2;P2;SDS_P1;SDS_P2;PMS_P1;PMS_P2;Temp;Humidity;BMP_temperature;BMP_pressure;BME280_temperature;BME280_humidity;BME280_pressure;Samples;Min_cycle;Max_cycle;Signal;HPM_P1;HPM_P2
2024/03/27 00:01:47;;;;;;;232.57;73.07;;;;;;;;;;4977660;28;20183;-49
2024/03/27 00:04:13;;;;;;;230.00;70.28;;;;;;;;;;4993571;28;20326;-49
2024/03/27 00:06:39;;;;;;;234.27;73.80;;;;;;;;;;4993504;28;20216;-48
2024/03/27 00:09:05;;;;;;;230.57;71.30;;;;;;;;;;4993837;28;20473;-48
2024/03/27 00:11:31;;;;;;;234.93;76.70;;;;;;;;;;4993245;28;20488;-47
2024/03/27 00:13:57;;;;;;;232.50;71.00;;;;;;;;;;4986979;28;20930;-47
2024/03/27 00:16:23;;;;;;;230.77;72.30;;;;;;;;;;4992604;28;20410;-48
2024/03/27 00:18:49;;;;;;;233.23;75.33;;;;;;;;;;4993336;28;20499;-48
2024/03/27 00:21:16;;;;;;;228.95;69.32;;;;;;;;;;4986515;28;20419;-47
2024/03/27 00:23:42;;;;;;;231.37;70.57;;;;;;;;;;4991832;28;20227;-47
2024/03/27 00:26:08;;;;;;;228.17;68.33;;;;;;;;;;4993306;28;20496;-48
2024/03/27 00:28:34;;;;;;;231.30;72.50;;;;;;;;;;4984917;28;20768;-49
2024/03/27 00:31:00;;;;;;;232.50;70.77;;;;;;;;;;4992610;28;20515;-48
2024/03/27 00:33:26;;;;;;;231.10;71.35;;;;;;;;;;4992971;28;20431;-47
2024/03/27 00:35:55;;;;;;;230.90;72.63;;;;;;;;;;4992601;28;20177;-47
2024/03/27 00:38:21;;;;;;;228.70;67.88;;;;;;;;;;4992803;28;20512;-48
2024/03/27 00:40:48;;;;;;;230.73;70.25;;;;;;;;;;4983853;28;20179;-49
2024/03/27 00:43:14;;;;;;;231.52;73.47;;;;;;;;;;4992616;28;20201;-47
2024/03/27 00:45:40;;;;;;;233.07;73.97;;;;;;;;;;4992256;28;20185;-48
2024/03/27 00:48:06;;;;;;;230.80;70.65;;;;;;;;;;4992834;28;20181;-48
2024/03/27 00:50:32;;;;;;;232.27;72.57;;;;;;;;;;4990621;28;20261;-48
2024/03/27 00:52:58;;;;;;;235.60;76.55;;;;;;;;;;4992554;28;20683;-47
2024/03/27 00:55:24;;;;;;;230.47;71.70;;;;;;;;;;4992379;28;20252;-49
2024/03/27 00:57:50;;;;;;;229.03;69.83;;;;;;;;;;4992479;28;20967;-48
2024/03/27 01:00:16;;;;;;;234.80;78.80;;;;;;;;;;4986138;28;20450;-46
2024/03/27 01:02:43;;;;;;;233.55;73.53;;;;;;;;;;4983118;28;20980;-45
2024/03/27 01:05:09;;;;;;;234.40;74.50;;;;;;;;;;4978513;28;20183;-46
2024/03/27 01:07:35;;;;;;;233.65;72.32;;;;;;;;;;4988768;28;20664;-46
2024/03/27 01:10:01;;;;;;;227.13;68.73;;;;;;;;;;4981009;28;20258;-45
2024/03/27 01:12:27;;;;;;;231.70;75.13;;;;;;;;;;4980687;28;20456;-46
2024/03/27 01:14:53;;;;;;;232.17;71.57;;;;;;;;;;4976073;28;20737;-45
2024/03/27 01:17:19;;;;;;;229.60;69.83;;;;;;;;;;4976946;28;20822;-46
2024/03/27 01:19:45;;;;;;;230.65;71.53;;;;;;;;;;4988560;28;20408;-45
2024/03/27 01:22:11;;;;;;;228.40;68.37;;;;;;;;;;4986723;28;20192;-46
2024/03/27 01:24:37;;;;;;;233.87;75.13;;;;;;;;;;4991585;28;20539;-45
2024/03/27 01:27:03;;;;;;;229.57;71.90;;;;;;;;;;4986657;28;20483;-47
2024/03/27 01:29:30;;;;;;;233.18;74.15;;;;;;;;;;4981117;28;20198;-45
2024/03/27 01:31:56;;;;;;;231.30;70.50;;;;;;;;;;4983886;28;20197;-46
2024/03/27 01:34:22;;;;;;;232.10;73.40;;;;;;;;;;4984087;28;20198;-47
2024/03/27 01:36:48;;;;;;;230.60;69.97;;;;;;;;;;4991521;28;20212;-45
2024/03/27 01:39:14;;;;;;;229.82;69.70;;;;;;;;;;4983797;28;20413;-45
2024/03/27 01:41:40;;;;;;;231.87;72.17;;;;;;;;;;4983569;28;20220;-44
2024/03/27 01:44:08;;;;;;;231.27;71.82;;;;;;;;;;4978098;28;20940;-44
2024/03/27 01:46:34;;;;;;;233.70;72.88;;;;;;;;;;4988353;28;20536;-44
2024/03/27 01:49:00;;;;;;;234.90;77.27;;;;;;;;;;4980429;28;20190;-45
2024/03/27 01:51:26;;;;;;;232.40;73.47;;;;;;;;;;4981742;28;20914;-46
2024/03/27 01:53:52;;;;;;;230.57;70.50;;;;;;;;;;4976319;28;20436;-47
2024/03/27 01:56:18;;;;;;;233.00;74.07;;;;;;;;;;4975975;28;20957;-46
2024/03/27 01:58:45;;;;;;;232.30;75.38;;;;;;;;;;4992114;28;20177;-47
2024/03/27 02:01:11;;;;;;;232.90;72.13;;;;;;;;;;4981787;28;20198;-45
2024/03/27 02:03:37;;;;;;;232.27;72.28;;;;;;;;;;4978552;28;20195;-45
2024/03/27 02:06:03;;;;;;;233.10;74.90;;;;;;;;;;4986733;28;20191;-44
2024/03/27 02:08:29;;;;;;;233.90;75.68;;;;;;;;;;4987689;28;20474;-46
2024/03/27 02:10:55;;;;;;;234.97;77.20;;;;;;;;;;4987242;28;20284;-44
2024/03/27 02:13:21;;;;;;;229.83;70.47;;;;;;;;;;4995521;28;20440;-45
2024/03/27 02:15:47;;;;;;;231.67;72.67;;;;;;;;;;4987101;28;20421;-45
2024/03/27 02:18:13;;;;;;;232.07;72.97;;;;;;;;;;4987117;28;20530;-45
2024/03/27 02:20:42;;;;;;;232.77;73.50;;;;;;;;;;4985359;28;20428;-46
2024/03/27 02:23:15;;;;;;;232.88;73.65;;;;;;;;;;4989537;28;20821;-45
2024/03/27 02:25:53;;;;;;;233.77;75.05;;;;;;;;;;4994784;28;20177;-45
2024/03/27 02:28:20;;;;;;;234.27;74.05;;;;;;;;;;4987172;28;20183;-46
2024/03/27 02:30:46;;;;;;;230.18;71.40;;;;;;;;;;4984246;28;20183;-44
2024/03/27 02:33:12;;;;;;;230.30;72.45;;;;;;;;;;4983619;28;20271;-45
2024/03/27 02:35:38;;;;;;;233.27;73.40;;;;;;;;;;4983747;28;20692;-44
2024/03/27 02:38:04;;;;;;;231.17;72.03;;;;;;;;;;4980464;28;20876;-44
2024/03/27 02:40:30;;;;;;;232.10;74.27;;;;;;;;;;4986480;28;20936;-44
2024/03/27 02:42:56;;;;;;;229.13;70.07;;;;;;;;;;4983446;28;20798;-45
2024/03/27 02:45:22;;;;;;;231.17;71.70;;;;;;;;;;4982706;28;20780;-46
2024/03/27 02:47:48;;;;;;;232.33;74.27;;;;;;;;;;4984076;28;20409;-44
2024/03/27 02:50:14;;;;;;;231.97;74.67;;;;;;;;;;4975406;28;20412;-44
2024/03/27 02:52:40;;;;;;;233.03;73.60;;;;;;;;;;4974935;28;20457;-44
2024/03/27 02:55:06;;;;;;;232.80;76.32;;;;;;;;;;4975089;28;20409;-45
2024/03/27 02:57:32;;;;;;;234.15;73.75;;;;;;;;;;4983884;28;20549;-44
2024/03/27 02:59:58;;;;;;;230.80;72.43;;;;;;;;;;4995041;28;20211;-44
2024/03/27 03:02:24;;;;;;;229.30;70.70;;;;;;;;;;4993970;28;20408;-47
2024/03/27 03:04:50;;;;;;;230.25;70.47;;;;;;;;;;4994144;28;20200;-44
2024/03/27 03:07:16;;;;;;;235.53;79.03;;;;;;;;;;4979218;28;20599;-45
2024/03/27 03:09:41;;;;;;;230.97;72.20;;;;;;;;;;4993444;28;20416;-45
2024/03/27 03:12:08;;;;;;;232.77;76.40;;;;;;;;;;4994259;28;20490;-46
2024/03/27 03:14:33;;;;;;;231.80;73.38;;;;;;;;;;4978121;28;20937;-45
2024/03/27 03:16:59;;;;;;;228.10;68.90;;;;;;;;;;4989862;28;20187;-45
2024/03/27 03:19:25;;;;;;;229.20;71.70;;;;;;;;;;4974811;28;20488;-47
2024/03/27 03:21:51;;;;;;;231.20;72.00;;;;;;;;;;4978306;28;20412;-44
2024/03/27 03:24:17;;;;;;;229.47;70.80;;;;;;;;;;4993965;28;20448;-45
2024/03/27 03:26:43;;;;;;;231.17;70.70;;;;;;;;;;4993754;28;20978;-46
2024/03/27 03:29:09;;;;;;;230.90;72.07;;;;;;;;;;4985935;28;20415;-44
2024/03/27 03:31:35;;;;;;;231.90;72.67;;;;;;;;;;4985929;28;20472;-46
2024/03/27 03:34:03;;;;;;;232.33;75.87;;;;;;;;;;4985827;28;20527;-47
2024/03/27 03:36:29;;;;;;;234.82;74.72;;;;;;;;;;4992750;28;20462;-46
2024/03/27 03:38:57;;;;;;;232.53;73.27;;;;;;;;;;4978217;28;20265;-44
2024/03/27 03:41:23;;;;;;;229.65;71.68;;;;;;;;;;4993534;28;20413;-44
2024/03/27 03:43:49;;;;;;;228.87;68.27;;;;;;;;;;4982206;28;20213;-44
2024/03/27 03:46:15;;;;;;;230.23;70.95;;;;;;;;;;4973962;28;20905;-45
2024/03/27 03:48:41;;;;;;;230.23;72.43;;;;;;;;;;4982050;28;20183;-47
2024/03/27 03:51:07;;;;;;;231.73;71.23;;;;;;;;;;4973916;28;20817;-45
2024/03/27 03:53:33;;;;;;;231.97;74.60;;;;;;;;;;4991079;28;20977;-45
2024/03/27 03:55:59;;;;;;;231.63;72.97;;;;;;;;;;4985290;28;20499;-45
2024/03/27 03:58:25;;;;;;;229.07;69.57;;;;;;;;;;4993701;28;20471;-45
2024/03/27 04:00:51;;;;;;;230.27;72.33;;;;;;;;;;4985373;28;20416;-45
2024/03/27 04:03:17;;;;;;;230.50;71.38;;;;;;;;;;4985454;28;20428;-44
2024/03/27 04:05:43;;;;;;;229.93;72.53;;;;;;;;;;4990656;28;20599;-45
2024/03/27 04:08:09;;;;;;;226.50;67.17;;;;;;;;;;4987476;28;20412;-44
2024/03/27 04:10:39;;;;;;;229.27;69.27;;;;;;;;;;4991791;28;20412;-45
2024/03/27 04:13:05;;;;;;;229.70;70.53;;;;;;;;;;4978823;28;20435;-45
2024/03/27 04:15:31;;;;;;;229.30;70.73;;;;;;;;;;4992042;28;20319;-44
2024/03/27 04:17:58;;;;;;;228.20;69.73;;;;;;;;;;4977603;28;20403;-44
2024/03/27 04:20:24;;;;;;;230.48;71.97;;;;;;;;;;4985188;28;20447;-45
2024/03/27 04:22:50;;;;;;;228.75;69.53;;;;;;;;;;4981347;28;20228;-46
2024/03/27 04:25:20;;;;;;;230.48;71.32;;;;;;;;;;4981163;28;20183;-44
2024/03/27 04:27:47;;;;;;;227.43;69.30;;;;;;;;;;4983992;28;20667;-45
2024/03/27 04:30:13;;;;;;;229.93;72.55;;;;;;;;;;4993126;28;20188;-45
2024/03/27 04:32:39;;;;;;;232.80;76.10;;;;;;;;;;4992291;28;20204;-47
2024/03/27 04:35:06;;;;;;;239.90;80.73;;;;;;;;;;4984439;28;20175;-46
2024/03/27 04:37:31;;;;;;;230.52;74.40;;;;;;;;;;4983566;28;20920;-45
2024/03/27 04:39:59;;;;;;;231.53;73.47;;;;;;;;;;4972994;28;20188;-44
2024/03/27 04:42:25;;;;;;;230.07;71.30;;;;;;;;;;4973375;28;20424;-45
2024/03/27 04:44:51;;;;;;;232.87;76.80;;;;;;;;;;4984400;28;20196;-45
2024/03/27 04:47:17;;;;;;;233.30;75.30;;;;;;;;;;4985097;28;20504;-46
2024/03/27 04:49:43;;;;;;;227.47;69.00;;;;;;;;;;4987047;28;20420;-45
2024/03/27 04:52:09;;;;;;;229.23;71.90;;;;;;;;;;4986722;28;20506;-45
2024/03/27 04:54:35;;;;;;;229.73;70.90;;;;;;;;;;4992203;28;20438;-44
2024/03/27 04:57:01;;;;;;;230.57;72.30;;;;;;;;;;4987532;28;20461;-45
2024/03/27 04:59:27;;;;;;;228.33;69.93;;;;;;;;;;4988937;28;20452;-45
2024/03/27 05:01:53;;;;;;;228.33;70.70;;;;;;;;;;4984117;28;20420;-44
2024/03/27 05:04:19;;;;;;;227.63;69.13;;;;;;;;;;4992468;28;20440;-45
2024/03/27 05:06:45;;;;;;;228.23;66.67;;;;;;;;;;4989271;28;20450;-44
2024/03/27 05:09:11;;;;;;;228.47;69.37;;;;;;;;;;4972674;28;20417;-45
2024/03/27 05:11:38;;;;;;;230.07;70.57;;;;;;;;;;4990104;28;20588;-45
2024/03/27 05:14:04;;;;;;;227.70;70.18;;;;;;;;;;4983861;28;20301;-46
2024/03/27 05:16:31;;;;;;;229.45;70.75;;;;;;;;;;4983405;28;20176;-44
2024/03/27 05:18:57;;;;;;;228.23;69.68;;;;;;;;;;4991971;28;20599;-45
2024/03/27 05:21:23;;;;;;;228.50;70.13;;;;;;;;;;4984094;28;20176;-44
2024/03/27 05:23:49;;;;;;;227.48;68.45;;;;;;;;;;4975971;28;20692;-44
2024/03/27 05:26:15;;;;;;;229.27;70.23;;;;;;;;;;4991335;28;20184;-45
2024/03/27 05:28:41;;;;;;;229.87;73.03;;;;;;;;;;4982241;28;20431;-46
2024/03/27 05:31:07;;;;;;;229.67;73.20;;;;;;;;;;4977764;28;20467;-45
2024/03/27 05:33:32;;;;;;;229.57;69.73;;;;;;;;;;4983774;28;20436;-45
2024/03/27 05:35:58;;;;;;;228.87;73.20;;;;;;;;;;4983528;28;20412;-44
2024/03/27 05:38:24;;;;;;;227.73;71.17;;;;;;;;;;4983568;28;20416;-45
2024/03/27 05:40:50;;;;;;;227.30;68.27;;;;;;;;;;4991726;28;20418;-46
2024/03/27 05:43:16;;;;;;;228.23;73.30;;;;;;;;;;4983741;28;20436;-45
2024/03/27 05:45:42;;;;;;;230.20;72.53;;;;;;;;;;4975550;28;20969;-46
2024/03/27 05:48:08;;;;;;;227.77;69.37;;;;;;;;;;4978284;28;20512;-45
2024/03/27 05:50:34;;;;;;;229.25;73.28;;;;;;;;;;4981224;28;20410;-45
2024/03/27 05:53:00;;;;;;;230.13;70.65;;;;;;;;;;4987025;28;20205;-44
2024/03/27 05:55:27;;;;;;;229.23;70.27;;;;;;;;;;4980281;28;20592;-46
2024/03/27 05:57:54;;;;;;;229.93;70.72;;;;;;;;;;4991528;28;20404;-47
2024/03/27 06:00:20;;;;;;;230.75;73.00;;;;;;;;;;4983954;28;20193;-45
2024/03/27 06:02:46;;;;;;;231.77;73.30;;;;;;;;;;4988777;28;20189;-46
2024/03/27 06:05:12;;;;;;;236.27;76.97;;;;;;;;;;4986119;28;20412;-46
2024/03/27 06:07:39;;;;;;;231.60;73.77;;;;;;;;;;4975581;28;20416;-45
2024/03/27 06:10:05;;;;;;;232.05;77.15;;;;;;;;;;4991856;28;20451;-45
2024/03/27 06:12:31;;;;;;;232.70;73.60;;;;;;;;;;4975612;28;20682;-46
2024/03/27 06:14:57;;;;;;;235.03;78.43;;;;;;;;;;4983351;28;20277;-46
2024/03/27 06:17:23;;;;;;;232.90;73.10;;;;;;;;;;4982033;28;20417;-49
2024/03/27 06:19:49;;;;;;;230.83;73.47;;;;;;;;;;4971972;28;20433;-45
2024/03/27 06:22:18;;;;;;;234.50;76.27;;;;;;;;;;4974679;28;20785;-45
2024/03/27 06:24:44;;;;;;;233.70;73.25;;;;;;;;;;4973309;28;20803;-44
2024/03/27 06:27:11;;;;;;;232.23;72.87;;;;;;;;;;4973201;28;20208;-44
2024/03/27 06:29:37;;;;;;;230.55;71.05;;;;;;;;;;4975905;28;20464;-47
2024/03/27 06:32:03;;;;;;;230.90;72.60;;;;;;;;;;4973247;28;20283;-47
2024/03/27 06:34:29;;;;;;;231.70;73.87;;;;;;;;;;4974459;28;20247;-46
2024/03/27 06:36:55;;;;;;;232.55;76.05;;;;;;;;;;4972809;28;20979;-45
2024/03/27 06:39:21;;;;;;;231.80;73.45;;;;;;;;;;4978866;28;20638;-45
2024/03/27 06:41:47;;;;;;;233.40;76.03;;;;;;;;;;4981050;28;20188;-44
2024/03/27 06:44:15;;;;;;;233.77;75.77;;;;;;;;;;4977964;28;20507;-45
2024/03/27 06:46:41;;;;;;;233.68;74.10;;;;;;;;;;4976495;28;20515;-48
2024/03/27 06:49:17;;;;;;;235.35;76.63;;;;;;;;;;4976734;28;20193;-48
2024/03/27 06:51:46;;;;;;;232.45;72.22;;;;;;;;;;4975015;28;20205;-45
2024/03/27 06:54:12;;;;;;;234.18;75.22;;;;;;;;;;4974895;28;20213;-45
2024/03/27 06:56:38;;;;;;;235.00;74.60;;;;;;;;;;4977593;28;20262;-45
2024/03/27 06:59:04;;;;;;;229.07;70.13;;;;;;;;;;4982648;28;20427;-45
2024/03/27 07:01:30;;;;;;;237.03;78.80;;;;;;;;;;4977193;28;20430;-46
2024/03/27 07:03:56;;;;;;;235.65;76.07;;;;;;;;;;4977922;28;20450;-46
2024/03/27 07:06:22;;;;;;;234.90;76.43;;;;;;;;;;4977099;28;20293;-46
2024/03/27 07:08:48;;;;;;;233.43;73.70;;;;;;;;;;4982451;28;20423;-46
2024/03/27 07:11:14;;;;;;;237.93;79.70;;;;;;;;;;4981190;28;20474;-46
2024/03/27 07:13:40;;;;;;;234.53;73.67;;;;;;;;;;4978910;28;20939;-46
2024/03/27 07:16:06;;;;;;;235.13;74.78;;;;;;;;;;4977398;28;20415;-46
2024/03/27 07:18:33;;;;;;;234.43;75.13;;;;;;;;;;4977897;28;20185;-46
2024/03/27 07:20:59;;;;;;;232.23;72.55;;;;;;;;;;4977308;28;20183;-46
2024/03/27 07:23:28;;;;;;;232.88;74.53;;;;;;;;;;4976781;28;20690;-46
2024/03/27 07:25:57;;;;;;;232.85;74.53;;;;;;;;;;4975971;28;20194;-46
2024/03/27 07:28:23;;;;;;;233.50;75.07;;;;;;;;;;4975842;28;20187;-46
2024/03/27 07:30:52;;;;;;;233.50;73.73;;;;;;;;;;4978309;28;20180;-46
2024/03/27 07:33:18;;;;;;;230.02;69.68;;;;;;;;;;4977047;28;20584;-46
2024/03/27 07:35:44;;;;;;;230.57;70.60;;;;;;;;;;4978010;28;20714;-46
2024/03/27 07:38:10;;;;;;;233.27;73.20;;;;;;;;;;4976640;28;20884;-47
2024/03/27 07:40:36;;;;;;;229.87;71.33;;;;;;;;;;4978325;28;20426;-46
2024/03/27 07:43:02;;;;;;;235.87;76.07;;;;;;;;;;4975699;28;20808;-46
2024/03/27 07:45:28;;;;;;;235.85;76.25;;;;;;;;;;4976708;28;20426;-47
2024/03/27 07:47:56;;;;;;;233.67;71.27;;;;;;;;;;4977910;28;20272;-46
2024/03/27 07:50:22;;;;;;;234.13;75.45;;;;;;;;;;4976043;28;20486;-46
2024/03/27 07:52:48;;;;;;;237.03;74.17;;;;;;;;;;4977993;28;20215;-46
2024/03/27 07:55:14;;;;;;;238.87;78.83;;;;;;;;;;4976533;28;20411;-47
2024/03/27 07:57:40;;;;;;;233.63;73.13;;;;;;;;;;4976864;28;21049;-46
2024/03/27 08:00:11;;;;;;;235.33;75.57;;;;;;;;;;4976478;28;20972;-48
2024/03/27 08:02:37;;;;;;;237.27;76.47;;;;;;;;;;4977920;28;20486;-46
2024/03/27 08:05:05;;;;;;;237.93;76.53;;;;;;;;;;4976436;28;20417;-46
2024/03/27 08:07:32;;;;;;;237.23;78.50;;;;;;;;;;4976683;28;20421;-47
2024/03/27 08:09:58;;;;;;;234.27;72.77;;;;;;;;;;4993207;28;20423;-46
2024/03/27 08:12:24;;;;;;;235.57;74.17;;;;;;;;;;4992696;28;20545;-47
2024/03/27 08:14:50;;;;;;;235.07;73.70;;;;;;;;;;4992508;28;20470;-46
2024/03/27 08:17:16;;;;;;;237.93;76.87;;;;;;;;;;4992666;28;20411;-46
2024/03/27 08:19:42;;;;;;;232.07;72.17;;;;;;;;;;4992522;28;20434;-46
2024/03/27 08:22:09;;;;;;;237.32;77.30;;;;;;;;;;4993050;28;20429;-46
2024/03/27 08:24:35;;;;;;;235.60;74.40;;;;;;;;;;4992531;28;20228;-47
2024/03/27 08:27:09;;;;;;;236.67;76.27;;;;;;;;;;4992381;28;20442;-46
2024/03/27 08:29:36;;;;;;;234.57;73.37;;;;;;;;;;4992610;28;20440;-47
2024/03/27 08:32:03;;;;;;;237.07;77.03;;;;;;;;;;4992531;28;20460;-47
2024/03/27 08:34:29;;;;;;;236.87;74.17;;;;;;;;;;4992408;28;20471;-46
2024/03/27 08:36:56;;;;;;;235.57;74.40;;;;;;;;;;4992451;28;20460;-47
2024/03/27 08:39:23;;;;;;;235.70;75.17;;;;;;;;;;4992681;28;20408;-46
2024/03/27 08:41:49;;;;;;;237.17;75.27;;;;;;;;;;4992356;28;20416;-47
2024/03/27 08:44:18;;;;;;;236.47;74.30;;;;;;;;;;4992264;28;20447;-46
2024/03/27 08:46:44;;;;;;;238.50;76.80;;;;;;;;;;4989218;28;20415;-46
2024/03/27 08:49:13;;;;;;;238.13;77.90;;;;;;;;;;4992486;28;20496;-47
2024/03/27 08:51:41;;;;;;;236.97;75.17;;;;;;;;;;4989014;28;20459;-47
2024/03/27 08:54:07;;;;;;;237.00;75.53;;;;;;;;;;4992067;28;20836;-47
2024/03/27 08:56:33;;;;;;;236.33;75.83;;;;;;;;;;4991947;28;20180;-47
2024/03/27 08:58:59;;;;;;;237.03;74.53;;;;;;;;;;4992255;28;20408;-47
2024/03/27 09:01:26;;;;;;;239.47;79.23;;;;;;;;;;4991070;28;20773;-47
2024/03/27 09:03:52;;;;;;;240.60;81.07;;;;;;;;;;4991936;28;20539;-47
2024/03/27 09:06:18;;;;;;;240.13;79.50;;;;;;;;;;4990903;28;20959;-48
2024/03/27 09:08:44;;;;;;;238.93;78.37;;;;;;;;;;4991930;28;20777;-47
2024/03/27 09:11:10;;;;;;;239.47;78.67;;;;;;;;;;4991907;28;20550;-47
2024/03/27 09:13:37;;;;;;;239.07;77.90;;;;;;;;;;4991641;28;20591;-46
2024/03/27 09:16:04;;;;;;;236.98;75.90;;;;;;;;;;4991909;28;20931;-47
2024/03/27 09:18:30;;;;;;;235.93;74.80;;;;;;;;;;4991788;28;20173;-46
2024/03/27 09:21:00;;;;;;;237.47;76.30;;;;;;;;;;4992030;28;20187;-48
2024/03/27 09:23:26;;;;;;;238.83;78.57;;;;;;;;;;4991596;28;20453;-47
2024/03/27 09:25:53;;;;;;;236.50;75.60;;;;;;;;;;4991445;28;20798;-47
2024/03/27 09:28:19;;;;;;;237.47;75.97;;;;;;;;;;4991655;28;20432;-46
2024/03/27 09:30:45;;;;;;;239.73;83.00;;;;;;;;;;4991698;28;20419;-46
2024/03/27 09:33:11;;;;;;;239.17;81.03;;;;;;;;;;4991683;28;20760;-47
2024/03/27 09:35:39;;;;;;;241.97;84.33;;;;;;;;;;4991262;28;20447;-47
2024/03/27 09:38:05;;;;;;;236.80;78.27;;;;;;;;;;4991609;28;20856;-46
2024/03/27 09:40:32;;;;;;;241.87;84.00;;;;;;;;;;4991689;28;20768;-46
2024/03/27 09:43:00;;;;;;;242.87;86.43;;;;;;;;;;4988046;28;20503;-47
2024/03/27 09:45:27;;;;;;;240.80;81.90;;;;;;;;;;4991106;28;20600;-47
2024/03/27 09:47:53;;;;;;;237.23;75.20;;;;;;;;;;4991652;28;20430;-47
2024/03/27 09:50:20;;;;;;;242.33;82.63;;;;;;;;;;4989378;28;20420;-47
2024/03/27 09:52:46;;;;;;;237.57;75.17;;;;;;;;;;4991186;28;20493;-47
2024/03/27 09:55:13;;;;;;;245.13;82.70;;;;;;;;;;4991168;28;20918;-46
2024/03/27 09:57:40;;;;;;;238.43;76.73;;;;;;;;;;4991094;28;20420;-47
2024/03/27 10:00:07;;;;;;;238.93;79.47;;;;;;;;;;4991424;28;20422;-47
2024/03/27 10:02:33;;;;;;;237.63;76.00;;;;;;;;;;4991341;28;20499;-46
2024/03/27 10:04:59;;;;;;;241.90;81.73;;;;;;;;;;4991195;28;20950;-46
2024/03/27 10:07:25;;;;;;;239.80;79.00;;;;;;;;;;4991234;28;20788;-46
2024/03/27 10:09:52;;;;;;;237.70;77.17;;;;;;;;;;4991121;28;20419;-46
2024/03/27 10:12:18;;;;;;;240.73;80.10;;;;;;;;;;4992054;28;20459;-46
2024/03/27 10:14:44;;;;;;;238.37;77.23;;;;;;;;;;4994377;28;20439;-47
2024/03/27 10:17:10;;;;;;;235.00;71.50;;;;;;;;;;4994848;28;20424;-47
2024/03/27 10:19:37;;;;;;;236.07;73.70;;;;;;;;;;4994961;28;20481;-47
2024/03/27 10:22:03;;;;;;;235.07;74.60;;;;;;;;;;4995055;28;20408;-46
2024/03/27 10:24:29;;;;;;;238.27;78.87;;;;;;;;;;4994784;28;20462;-46
2024/03/27 10:26:55;;;;;;;238.10;77.13;;;;;;;;;;4986616;28;20420;-46
2024/03/27 10:29:21;;;;;;;235.53;75.57;;;;;;;;;;4982331;28;20469;-46
2024/03/27 10:31:47;;;;;;;233.70;72.27;;;;;;;;;;4994049;28;20588;-46
2024/03/27 10:34:14;;;;;;;237.73;77.37;;;;;;;;;;4994186;28;20431;-47
2024/03/27 10:36:40;;;;;;;237.67;77.63;;;;;;;;;;4994268;28;20490;-46
2024/03/27 10:39:11;;;;;;;238.27;78.00;;;;;;;;;;4994701;28;20578;-46
2024/03/27 10:41:37;;;;;;;239.80;78.97;;;;;;;;;;4994578;28;20422;-47
2024/03/27 10:44:05;;;;;;;234.27;72.07;;;;;;;;;;4994752;28;20463;-47
2024/03/27 10:46:32;;;;;;;236.77;76.17;;;;;;;;;;4987019;28;20420;-46
2024/03/27 10:48:59;;;;;;;238.87;80.67;;;;;;;;;;4994747;28;20458;-46
2024/03/27 10:51:25;;;;;;;236.17;75.77;;;;;;;;;;4992423;28;20455;-46
2024/03/27 10:53:52;;;;;;;239.03;80.13;;;;;;;;;;4994150;28;20528;-46
2024/03/27 10:56:18;;;;;;;234.00;73.30;;;;;;;;;;4994422;28;20772;-47
2024/03/27 10:58:44;;;;;;;235.50;74.00;;;;;;;;;;4994148;28;20423;-47
2024/03/27 11:01:10;;;;;;;236.57;73.40;;;;;;;;;;4994169;28;20412;-46
2024/03/27 11:03:41;;;;;;;241.80;80.60;;;;;;;;;;4983811;28;20444;-46
2024/03/27 11:06:08;;;;;;;239.93;78.57;;;;;;;;;;4971969;28;20507;-47
2024/03/27 11:08:34;;;;;;;243.77;84.63;;;;;;;;;;4977325;28;20409;-46
2024/03/27 11:11:04;;;;;;;238.37;77.67;;;;;;;;;;4980228;28;20421;-47
2024/03/27 11:13:30;;;;;;;240.17;77.57;;;;;;;;;;4973137;28;20437;-47
2024/03/27 11:15:56;;;;;;;233.77;74.50;;;;;;;;;;4975643;28;20415;-47
2024/03/27 11:18:22;;;;;;;237.97;77.83;;;;;;;;;;4973906;28;20752;-46
2024/03/27 11:20:55;;;;;;;239.23;79.33;;;;;;;;;;4978306;28;20407;-47
2024/03/27 11:23:28;;;;;;;238.20;78.37;;;;;;;;;;4974668;28;20488;-46
2024/03/27 11:25:55;;;;;;;237.40;77.80;;;;;;;;;;4975726;28;20419;-46
2024/03/27 11:28:21;;;;;;;235.57;74.67;;;;;;;;;;4975599;28;20423;-47
2024/03/27 11:30:47;;;;;;;236.80;76.13;;;;;;;;;;4979945;28;20424;-46
2024/03/27 11:33:14;;;;;;;235.17;74.47;;;;;;;;;;4993691;28;20999;-47
2024/03/27 11:35:40;;;;;;;238.47;77.50;;;;;;;;;;4993209;28;20895;-46
2024/03/27 11:38:06;;;;;;;235.80;76.00;;;;;;;;;;4993561;28;20410;-46
2024/03/27 11:40:32;;;;;;;237.97;78.50;;;;;;;;;;4993707;28;20419;-46
2024/03/27 11:42:58;;;;;;;236.73;76.47;;;;;;;;;;4993442;28;20530;-46
2024/03/27 11:45:27;;;;;;;236.67;75.37;;;;;;;;;;4993168;28;20424;-46
2024/03/27 11:47:53;;;;;;;233.47;72.50;;;;;;;;;;4993501;28;20426;-46
2024/03/27 11:50:20;;;;;;;234.97;73.97;;;;;;;;;;4991348;28;20419;-46
2024/03/27 11:52:46;;;;;;;239.00;77.27;;;;;;;;;;4993250;28;20494;-46
2024/03/27 11:55:13;;;;;;;237.80;76.37;;;;;;;;;;4993246;28;20884;-47
2024/03/27 11:57:39;;;;;;;237.77;78.47;;;;;;;;;;4993031;28;20836;-46
2024/03/27 12:00:07;;;;;;;235.77;74.40;;;;;;;;;;4993291;28;20408;-47
2024/03/27 12:02:33;;;;;;;234.35;74.35;;;;;;;;;;4993333;28;20653;-47
2024/03/27 12:05:00;;;;;;;235.47;75.30;;;;;;;;;;4992951;28;20190;-47
2024/03/27 12:07:26;;;;;;;236.37;75.90;;;;;;;;;;4992834;28;20448;-46
2024/03/27 12:09:52;;;;;;;235.60;74.00;;;;;;;;;;4993037;28;20422;-47
2024/03/27 12:12:18;;;;;;;232.67;71.33;;;;;;;;;;4992971;28;20467;-47
2024/03/27 12:14:44;;;;;;;234.67;72.43;;;;;;;;;;4992916;28;20428;-47
2024/03/27 12:17:13;;;;;;;252.50;88.77;;;;;;;;;;4989159;28;20437;-46
2024/03/27 12:19:51;;;;;;;235.63;74.63;;;;;;;;;;4980759;28;20555;-46
2024/03/27 12:22:17;;;;;;;237.03;75.53;;;;;;;;;;4992763;28;20470;-47
2024/03/27 12:24:43;;;;;;;236.37;73.43;;;;;;;;;;4989618;28;20827;-46
2024/03/27 12:27:09;;;;;;;239.97;83.77;;;;;;;;;;4992597;28;20415;-46
2024/03/27 12:29:36;;;;;;;239.47;80.23;;;;;;;;;;4979275;28;20456;-46
2024/03/27 12:32:04;;;;;;;233.53;72.93;;;;;;;;;;4974225;28;20452;-46
2024/03/27 12:34:31;;;;;;;237.23;74.73;;;;;;;;;;4975507;28;20447;-46
2024/03/27 12:36:57;;;;;;;236.87;77.43;;;;;;;;;;4975898;28;20415;-46
2024/03/27 12:39:23;;;;;;;236.02;75.70;;;;;;;;;;4975244;28;20425;-47
2024/03/27 12:41:49;;;;;;;234.23;73.33;;;;;;;;;;4976767;28;20726;-46
2024/03/27 12:44:15;;;;;;;235.13;73.57;;;;;;;;;;4980429;28;20427;-46
2024/03/27 12:46:41;;;;;;;237.27;75.23;;;;;;;;;;4991843;28;20410;-47
2024/03/27 12:49:07;;;;;;;236.30;75.63;;;;;;;;;;4981936;28;20823;-46
2024/03/27 12:51:33;;;;;;;240.80;79.13;;;;;;;;;;4976352;28;20471;-47
2024/03/27 12:53:59;;;;;;;236.27;76.23;;;;;;;;;;4978613;28;20433;-46
2024/03/27 12:56:25;;;;;;;233.43;72.07;;;;;;;;;;4991819;28;20416;-46
2024/03/27 12:58:51;;;;;;;238.40;78.43;;;;;;;;;;4983714;28;20423;-46
2024/03/27 13:01:17;;;;;;;232.50;71.57;;;;;;;;;;4976438;28;20451;-48
2024/03/27 13:03:43;;;;;;;235.25;73.72;;;;;;;;;;4976253;28;20502;-49
2024/03/27 13:06:09;;;;;;;236.03;75.17;;;;;;;;;;4984105;28;20194;-48
2024/03/27 13:08:35;;;;;;;235.67;74.43;;;;;;;;;;4991174;28;20423;-47
2024/03/27 13:11:01;;;;;;;232.33;72.47;;;;;;;;;;4971947;28;20462;-46
2024/03/27 13:13:27;;;;;;;239.03;76.93;;;;;;;;;;4982978;28;20849;-46
2024/03/27 13:15:53;;;;;;;237.87;76.13;;;;;;;;;;4990148;28;20915;-48
2024/03/27 13:18:19;;;;;;;235.43;73.63;;;;;;;;;;4990932;28;20415;-48
2024/03/27 13:20:45;;;;;;;239.07;76.07;;;;;;;;;;4977870;28;20181;-48
2024/03/27 13:23:11;;;;;;;239.57;77.63;;;;;;;;;;4980334;28;20453;-47
2024/03/27 13:25:37;;;;;;;235.77;73.38;;;;;;;;;;4989261;28;20410;-49
2024/03/27 13:28:04;;;;;;;232.20;69.17;;;;;;;;;;4991898;28;20176;-49
2024/03/27 13:30:30;;;;;;;233.50;70.93;;;;;;;;;;4982577;28;20549;-48
2024/03/27 13:32:55;;;;;;;232.93;71.73;;;;;;;;;;4985402;28;20877;-48
2024/03/27 13:35:21;;;;;;;232.87;72.00;;;;;;;;;;4982896;28;20417;-47
2024/03/27 13:37:47;;;;;;;232.40;70.27;;;;;;;;;;4988750;28;20485;-47
2024/03/27 13:40:13;;;;;;;232.17;70.17;;;;;;;;;;4981932;28;20509;-48
2024/03/27 13:42:39;;;;;;;238.80;75.50;;;;;;;;;;4973665;28;20493;-49
2024/03/27 13:45:05;;;;;;;233.10;69.17;;;;;;;;;;4987774;28;20780;-47
2024/03/27 13:47:31;;;;;;;233.10;70.13;;;;;;;;;;4991604;28;20489;-49
2024/03/27 13:49:57;;;;;;;231.53;67.13;;;;;;;;;;4987972;28;20320;-46
2024/03/27 13:52:23;;;;;;;235.00;75.80;;;;;;;;;;4989831;28;20471;-47
2024/03/27 13:54:49;;;;;;;236.37;78.63;;;;;;;;;;4996920;28;20427;-48
2024/03/27 13:57:15;;;;;;;231.43;67.60;;;;;;;;;;4992917;28;20400;-47
2024/03/27 13:59:41;;;;;;;246.40;87.40;;;;;;;;;;4993790;28;20518;-46